Terminal Aerodrome Forecast
Issued by NWS Lake Charles, LA

Current Version | Previous Version | Text Only | Print | Product List | Glossary On
Versions: 1 2 3 4 5 6 7 8 9 10 11 12 13 14 15 16 17 18 19 20
000
FTUS44 KLCH 242323
TAFARA
TAF
KARA 242323Z 2500/2524 31014G22KT P6SM SCT070
     FM250200 VRB03KT P6SM SKC
     FM251600 21011G19KT P6SM SKC=

USA.gov is the U.S. government's official web portal to all federal, state and local government web resources and services.